MDT,Max TemperatureF,Mean TemperatureF,Min TemperatureF,Max Dew PointF,MeanDew PointF,Min DewpointF,Max Humidity, Mean Humidity, Min Humidity, Max Sea Level PressureIn, Mean Sea Level PressureIn, Min Sea Level PressureIn, Max VisibilityMiles, Mean VisibilityMiles, Min VisibilityMiles, Max Wind SpeedMPH, Mean Wind SpeedMPH, Max Gust SpeedMPH,PrecipitationIn, CloudCover, Events, WindDirDegrees
2012-10-1,68,47,26,,,,,,,30.44,30.33,30.19,10,10,10,17,3,26,0.00,0,,226
2012-10-2,66,50,35,,,,,,,30.19,30.05,29.92,10,10,10,25,10,33,0.00,1,Rain,219
2012-10-3,48,37,26,,,,,,,30.34,30.16,29.93,10,10,10,18,9,28,0.00,1,,2
2012-10-4,41,26,10,,,,,,,30.33,30.23,30.15,10,10,10,14,2,17,0.00,1,,16
2012-10-5,42,27,12,,,,,,,30.30,30.24,30.19,10,10,10,21,5,28,0.00,1,,38
2012-10-6,44,25,6,,,,,,,30.32,30.26,30.18,10,10,10,10,4,,0.00,1,,32
2012-10-7,53,30,8,,,,,,,30.24,30.17,30.08,10,10,10,21,4,29,0.00,1,,219
2012-10-8,53,34,15,,,,,,,30.11,30.03,29.94,10,10,10,23,6,34,0.00,0,,213
2012-10-9,53,38,24,,,,,,,30.15,30.09,30.00,10,10,10,9,1,16,0.00,4,,250
2012-10-10,60,37,14,,,,,,,30.15,30.08,30.00,10,10,10,21,3,26,0.00,0,,216
2012-10-11,62,38,14,,,,,,,30.14,30.08,30.04,10,10,10,14,2,21,0.00,0,,214
2012-10-12,66,42,17,,,,,,,30.08,30.00,29.89,10,10,10,13,2,21,0.00,2,,223
2012-10-13,51,38,26,,,,,,,30.29,30.15,30.01,10,10,10,16,5,23,0.00,5,,224
2012-10-14,,,,,,,,,,,,,,,,,,,,,,
2012-10-15,50,42,35,,,,,,,30.10,30.04,30.01,10,10,7,20,9,34,0.00,4,Rain,227
2012-10-16,48,40,32,,,,,,,30.01,29.82,29.62,10,9,1,17,8,32,0.06,5,Rain,248
2012-10-17,44,35,26,,,,,,,30.21,30.07,29.94,10,10,10,20,8,29,0.00,0,,257
2012-10-18,48,30,12,,,,,,,30.33,30.27,30.21,10,10,10,16,4,25,0.00,0,,203
2012-10-19,48,32,17,,,,,,,30.23,30.07,29.89,10,10,10,24,5,31,0.00,4,,209
2012-10-20,48,42,33,,,,,,,29.89,29.76,29.68,10,10,2,24,10,39,0.13,6,Rain,221
2012-10-21,44,36,28,,,,,,,29.86,29.83,29.80,10,10,7,21,5,33,0.00,3,,225
2012-10-22,37,32,28,,,,,,,29.85,29.74,29.63,10,7,0,15,3,23,0.19,6,Rain-Snow,218
2012-10-23,33,28,24,,,,,,,29.91,29.79,29.66,10,5,0,23,15,34,0.05,6,Rain-Snow,215
2012-10-24,32,20,8,,,,,,,30.05,29.97,29.91,10,10,5,10,3,,0.00,4,,211
2012-10-25,30,18,6,,,,,,,30.31,30.14,30.05,10,7,0,8,1,,0.01,6,Rain-Snow,208
2012-10-26,24,12,1,,,,,,,30.35,30.25,30.09,10,8,1,18,4,25,0.00,7,Rain-Snow,213
2012-10-27,32,28,24,,,,,,,30.09,30.08,30.06,10,8,2,20,10,26,0.00,7,Rain-Snow,218
2012-10-28,37,34,32,,,,,,,30.11,30.08,30.05,10,4,0,26,11,34,0.02,8,Fog-Snow,228
2012-10-29,48,42,37,,,,,,,30.19,30.14,30.10,10,10,2,20,9,24,0.01,7,Rain,212
2012-10-30,50,39,28,,,,,,,30.25,30.19,30.15,10,10,10,17,7,24,0.00,1,,229
2012-10-31,55,39,23,,,,,,,30.24,30.17,30.07,10,10,7,9,1,,0.00,0,,246